sensor_id;sensor_type;location;lat;lon;timestamp;temperature;humidity
25918;DHT22;13899;51.174;4.456;2023-02-24T00:01:40;9.60;99.90
25918;DHT22;13899;51.174;4.456;2023-02-24T00:04:10;9.90;99.90
25918;DHT22;13899;51.174;4.456;2023-02-24T00:06:39;9.60;99.90
25918;DHT22;13899;51.174;4.456;2023-02-24T00:09:15;9.80;99.90
25918;DHT22;13899;51.174;4.456;2023-02-24T00:11:45;9.90;99.90
25918;DHT22;13899;51.174;4.456;2023-02-24T00:14:13;10.20;99.90
25918;DHT22;13899;51.174;4.456;2023-02-24T00:16:45;9.90;99.90
25918;DHT22;13899;51.174;4.456;2023-02-24T00:19:11;10.00;99.90
25918;DHT22;13899;51.174;4.456;2023-02-24T00:21:37;9.20;99.90
25918;DHT22;13899;51.174;4.456;2023-02-24T00:24:03;9.50;99.90
25918;DHT22;13899;51.174;4.456;2023-02-24T00:26:32;9.80;99.90
25918;DHT22;13899;51.174;4.456;2023-02-24T00:28:58;9.60;99.90
25918;DHT22;13899;51.174;4.456;2023-02-24T00:31:28;9.60;99.90
25918;DHT22;13899;51.174;4.456;2023-02-24T00:34:00;9.50;99.90
25918;DHT22;13899;51.174;4.456;2023-02-24T00:36:28;9.60;99.90
25918;DHT22;13899;51.174;4.456;2023-02-24T00:38:57;9.10;99.90
25918;DHT22;13899;51.174;4.456;2023-02-24T00:41:30;8.90;99.90
25918;DHT22;13899;51.174;4.456;2023-02-24T00:44:01;8.90;99.90
25918;DHT22;13899;51.174;4.456;2023-02-24T00:46:35;9.50;99.90
25918;DHT22;13899;51.174;4.456;2023-02-24T00:49:02;9.70;99.90
25918;DHT22;13899;51.174;4.456;2023-02-24T00:51:36;9.50;99.90
25918;DHT22;13899;51.174;4.456;2023-02-24T00:54:03;9.70;99.90
25918;DHT22;13899;51.174;4.456;2023-02-24T00:56:30;9.80;99.90
25918;DHT22;13899;51.174;4.456;2023-02-24T00:58:57;9.80;99.90
25918;DHT22;13899;51.174;4.456;2023-02-24T01:01:32;9.80;99.90
25918;DHT22;13899;51.174;4.456;2023-02-24T01:03:59;9.60;99.90
25918;DHT22;13899;51.174;4.456;2023-02-24T01:06:32;9.60;99.90
25918;DHT22;13899;51.174;4.456;2023-02-24T01:08:59;9.60;99.90
25918;DHT22;13899;51.174;4.456;2023-02-24T01:11:26;9.50;99.90
25918;DHT22;13899;51.174;4.456;2023-02-24T01:14:20;9.80;99.90
25918;DHT22;13899;51.174;4.456;2023-02-24T01:16:46;9.90;99.90
25918;DHT22;13899;51.174;4.456;2023-02-24T01:19:27;10.00;99.90
25918;DHT22;13899;51.174;4.456;2023-02-24T01:21:57;9.90;99.90
25918;DHT22;13899;51.174;4.456;2023-02-24T01:24:24;9.80;99.90
25918;DHT22;13899;51.174;4.456;2023-02-24T01:26:50;10.10;99.90
25918;DHT22;13899;51.174;4.456;2023-02-24T01:29:15;9.90;99.90
25918;DHT22;13899;51.174;4.456;2023-02-24T01:31:41;9.70;99.90
25918;DHT22;13899;51.174;4.456;2023-02-24T01:34:11;10.10;99.90
25918;DHT22;13899;51.174;4.456;2023-02-24T01:36:39;10.20;99.90
25918;DHT22;13899;51.174;4.456;2023-02-24T01:39:09;10.20;99.90
25918;DHT22;13899;51.174;4.456;2023-02-24T01:41:40;10.30;99.90
25918;DHT22;13899;51.174;4.456;2023-02-24T01:46:41;10.20;99.90
25918;DHT22;13899;51.174;4.456;2023-02-24T01:49:14;9.90;99.90
25918;DHT22;13899;51.174;4.456;2023-02-24T01:51:46;10.30;99.90
25918;DHT22;13899;51.174;4.456;2023-02-24T01:54:16;10.40;99.90
25918;DHT22;13899;51.174;4.456;2023-02-24T01:56:46;10.70;99.90
25918;DHT22;13899;51.174;4.456;2023-02-24T01:59:13;10.40;99.90
25918;DHT22;13899;51.174;4.456;2023-02-24T02:01:40;10.40;99.90
25918;DHT22;13899;51.174;4.456;2023-02-24T02:04:30;10.60;99.90
25918;DHT22;13899;51.174;4.456;2023-02-24T02:06:59;10.60;99.90
25918;DHT22;13899;51.174;4.456;2023-02-24T02:09:26;10.30;99.90
25918;DHT22;13899;51.174;4.456;2023-02-24T02:11:52;10.40;99.90
25918;DHT22;13899;51.174;4.456;2023-02-24T02:14:21;10.20;99.90
25918;DHT22;13899;51.174;4.456;2023-02-24T02:16:54;10.10;99.90
25918;DHT22;13899;51.174;4.456;2023-02-24T02:19:36;10.10;99.90
25918;DHT22;13899;51.174;4.456;2023-02-24T02:22:27;10.40;99.90
25918;DHT22;13899;51.174;4.456;2023-02-24T02:25:17;10.40;99.90
25918;DHT22;13899;51.174;4.456;2023-02-24T02:33:43;10.00;99.90
25918;DHT22;13899;51.174;4.456;2023-02-24T02:36:22;10.20;99.90
25918;DHT22;13899;51.174;4.456;2023-02-24T02:39:19;10.40;99.90
25918;DHT22;13899;51.174;4.456;2023-02-24T02:42:04;10.40;99.90
25918;DHT22;13899;51.174;4.456;2023-02-24T02:44:44;10.50;99.90
25918;DHT22;13899;51.174;4.456;2023-02-24T02:47:29;10.60;99.90
25918;DHT22;13899;51.174;4.456;2023-02-24T02:52:56;10.80;99.90
25918;DHT22;13899;51.174;4.456;2023-02-24T02:55:37;10.40;99.90
25918;DHT22;13899;51.174;4.456;2023-02-24T02:58:08;10.50;99.90
25918;DHT22;13899;51.174;4.456;2023-02-24T03:00:43;10.70;99.90
25918;DHT22;13899;51.174;4.456;2023-02-24T03:03:18;10.80;99.90
25918;DHT22;13899;51.174;4.456;2023-02-24T03:05:55;10.70;99.90
25918;DHT22;13899;51.174;4.456;2023-02-24T03:08:27;10.30;99.90
25918;DHT22;13899;51.174;4.456;2023-02-24T03:10:56;10.30;99.90
25918;DHT22;13899;51.174;4.456;2023-02-24T03:13:25;10.60;99.90
25918;DHT22;13899;51.174;4.456;2023-02-24T03:15:56;10.70;99.90
25918;DHT22;13899;51.174;4.456;2023-02-24T03:18:29;10.60;99.90
25918;DHT22;13899;51.174;4.456;2023-02-24T03:21:09;10.60;99.90
25918;DHT22;13899;51.174;4.456;2023-02-24T03:23:49;10.50;99.90
25918;DHT22;13899;51.174;4.456;2023-02-24T03:26:41;9.20;99.90
25918;DHT22;13899;51.174;4.456;2023-02-24T03:29:23;9.20;99.90
25918;DHT22;13899;51.174;4.456;2023-02-24T03:35:16;10.10;99.90
25918;DHT22;13899;51.174;4.456;2023-02-24T03:37:40;9.60;99.90
25918;DHT22;13899;51.174;4.456;2023-02-24T03:40:08;8.90;99.90
25918;DHT22;13899;51.174;4.456;2023-02-24T03:43:01;7.60;99.90
25918;DHT22;13899;51.174;4.456;2023-02-24T03:45:39;7.90;99.90
25918;DHT22;13899;51.174;4.456;2023-02-24T03:48:07;7.50;99.90
25918;DHT22;13899;51.174;4.456;2023-02-24T03:50:38;7.70;99.90
25918;DHT22;13899;51.174;4.456;2023-02-24T03:53:20;8.00;99.90
25918;DHT22;13899;51.174;4.456;2023-02-24T03:58:46;8.50;99.90
25918;DHT22;13899;51.174;4.456;2023-02-24T04:01:28;8.20;99.90
25918;DHT22;13899;51.174;4.456;2023-02-24T04:04:06;8.40;99.90
25918;DHT22;13899;51.174;4.456;2023-02-24T04:07:03;8.50;99.90
25918;DHT22;13899;51.174;4.456;2023-02-24T04:09:40;8.10;99.90
25918;DHT22;13899;51.174;4.456;2023-02-24T04:12:19;8.40;99.90
25918;DHT22;13899;51.174;4.456;2023-02-24T04:14:53;8.80;99.90
25918;DHT22;13899;51.174;4.456;2023-02-24T04:19:53;8.20;99.90
25918;DHT22;13899;51.174;4.456;2023-02-24T04:22:21;8.40;99.90
25918;DHT22;13899;51.174;4.456;2023-02-24T04:24:51;7.80;99.90
25918;DHT22;13899;51.174;4.456;2023-02-24T04:27:20;7.10;99.90
25918;DHT22;13899;51.174;4.456;2023-02-24T04:29:52;7.10;99.90
25918;DHT22;13899;51.174;4.456;2023-02-24T04:32:23;7.60;99.90
25918;DHT22;13899;51.174;4.456;2023-02-24T04:34:51;7.20;99.90
25918;DHT22;13899;51.174;4.456;2023-02-24T04:37:17;7.00;99.90
25918;DHT22;13899;51.174;4.456;2023-02-24T04:39:47;7.10;99.90
25918;DHT22;13899;51.174;4.456;2023-02-24T04:42:15;7.10;99.90
25918;DHT22;13899;51.174;4.456;2023-02-24T04:44:41;7.40;99.90
25918;DHT22;13899;51.174;4.456;2023-02-24T04:47:10;7.10;99.90
25918;DHT22;13899;51.174;4.456;2023-02-24T04:49:36;7.20;99.90
25918;DHT22;13899;51.174;4.456;2023-02-24T04:52:06;7.50;99.90
25918;DHT22;13899;51.174;4.456;2023-02-24T04:54:34;7.10;99.90
25918;DHT22;13899;51.174;4.456;2023-02-24T04:56:59;7.30;99.90
25918;DHT22;13899;51.174;4.456;2023-02-24T04:59:26;6.90;99.90
25918;DHT22;13899;51.174;4.456;2023-02-24T05:01:52;6.70;99.90
25918;DHT22;13899;51.174;4.456;2023-02-24T05:04:19;6.60;99.90
25918;DHT22;13899;51.174;4.456;2023-02-24T05:06:45;7.00;99.90
25918;DHT22;13899;51.174;4.456;2023-02-24T05:09:16;7.40;99.90
25918;DHT22;13899;51.174;4.456;2023-02-24T05:11:47;7.90;99.90
25918;DHT22;13899;51.174;4.456;2023-02-24T05:14:14;8.50;99.90
25918;DHT22;13899;51.174;4.456;2023-02-24T05:16:44;8.40;99.90
25918;DHT22;13899;51.174;4.456;2023-02-24T05:19:16;8.60;99.90
25918;DHT22;13899;51.174;4.456;2023-02-24T05:22:01;8.90;99.90
25918;DHT22;13899;51.174;4.456;2023-02-24T05:24:29;8.70;99.90
25918;DHT22;13899;51.174;4.456;2023-02-24T05:26:56;8.90;99.90
25918;DHT22;13899;51.174;4.456;2023-02-24T05:29:30;8.60;99.90
25918;DHT22;13899;51.174;4.456;2023-02-24T05:31:57;7.90;99.90
25918;DHT22;13899;51.174;4.456;2023-02-24T05:34:26;7.30;99.90
25918;DHT22;13899;51.174;4.456;2023-02-24T05:36:52;7.10;99.90
25918;DHT22;13899;51.174;4.456;2023-02-24T05:39:18;7.90;99.90
25918;DHT22;13899;51.174;4.456;2023-02-24T05:41:45;8.30;99.90
25918;DHT22;13899;51.174;4.456;2023-02-24T05:44:15;8.60;99.90
25918;DHT22;13899;51.174;4.456;2023-02-24T05:46:43;8.60;99.90
25918;DHT22;13899;51.174;4.456;2023-02-24T05:49:15;8.50;99.90
25918;DHT22;13899;51.174;4.456;2023-02-24T05:51:45;8.60;99.90
25918;DHT22;13899;51.174;4.456;2023-02-24T05:54:19;9.20;99.90
25918;DHT22;13899;51.174;4.456;2023-02-24T05:56:45;8.60;99.90
25918;DHT22;13899;51.174;4.456;2023-02-24T05:59:12;8.60;99.90
25918;DHT22;13899;51.174;4.456;2023-02-24T06:01:45;8.60;99.90
25918;DHT22;13899;51.174;4.456;2023-02-24T06:04:12;8.90;99.90
25918;DHT22;13899;51.174;4.456;2023-02-24T06:06:47;9.00;99.90
25918;DHT22;13899;51.174;4.456;2023-02-24T06:09:17;9.00;99.90
25918;DHT22;13899;51.174;4.456;2023-02-24T06:11:43;8.30;99.90
25918;DHT22;13899;51.174;4.456;2023-02-24T06:14:14;8.70;99.90
25918;DHT22;13899;51.174;4.456;2023-02-24T06:16:41;8.40;99.90
25918;DHT22;13899;51.174;4.456;2023-02-24T06:19:19;8.60;99.90
25918;DHT22;13899;51.174;4.456;2023-02-24T06:22:01;8.10;99.90
25918;DHT22;13899;51.174;4.456;2023-02-24T06:24:31;7.90;99.90
25918;DHT22;13899;51.174;4.456;2023-02-24T06:26:58;8.30;99.90
25918;DHT22;13899;51.174;4.456;2023-02-24T06:29:36;7.40;99.90
25918;DHT22;13899;51.174;4.456;2023-02-24T06:32:02;6.40;99.90
25918;DHT22;13899;51.174;4.456;2023-02-24T06:34:37;7.10;99.90
25918;DHT22;13899;51.174;4.456;2023-02-24T06:37:04;7.00;99.90
25918;DHT22;13899;51.174;4.456;2023-02-24T06:39:31;6.10;99.90
25918;DHT22;13899;51.174;4.456;2023-02-24T06:41:58;5.40;99.90
25918;DHT22;13899;51.174;4.456;2023-02-24T06:44:29;4.90;99.90
25918;DHT22;13899;51.174;4.456;2023-02-24T06:46:54;4.90;99.90
25918;DHT22;13899;51.174;4.456;2023-02-24T06:49:20;5.50;99.90
25918;DHT22;13899;51.174;4.456;2023-02-24T06:51:47;6.40;99.90
25918;DHT22;13899;51.174;4.456;2023-02-24T06:54:13;6.80;99.90
25918;DHT22;13899;51.174;4.456;2023-02-24T06:56:39;7.30;99.90
25918;DHT22;13899;51.174;4.456;2023-02-24T06:59:06;6.50;99.90
25918;DHT22;13899;51.174;4.456;2023-02-24T07:01:36;6.00;99.90
25918;DHT22;13899;51.174;4.456;2023-02-24T07:04:10;5.20;99.90
25918;DHT22;13899;51.174;4.456;2023-02-24T07:06:36;5.20;99.90
25918;DHT22;13899;51.174;4.456;2023-02-24T07:09:04;5.30;99.90
25918;DHT22;13899;51.174;4.456;2023-02-24T07:11:32;5.20;99.90
25918;DHT22;13899;51.174;4.456;2023-02-24T07:13:58;5.40;99.90
25918;DHT22;13899;51.174;4.456;2023-02-24T07:16:24;5.10;99.90
25918;DHT22;13899;51.174;4.456;2023-02-24T07:18:54;4.80;99.90
25918;DHT22;13899;51.174;4.456;2023-02-24T07:21:22;4.70;99.90
25918;DHT22;13899;51.174;4.456;2023-02-24T07:23:48;4.70;99.90
25918;DHT22;13899;51.174;4.456;2023-02-24T07:26:17;4.70;99.90
25918;DHT22;13899;51.174;4.456;2023-02-24T07:28:44;4.80;99.90
25918;DHT22;13899;51.174;4.456;2023-02-24T07:31:12;5.10;99.90
25918;DHT22;13899;51.174;4.456;2023-02-24T07:33:40;5.10;99.90
25918;DHT22;13899;51.174;4.456;2023-02-24T07:36:14;5.40;99.90
25918;DHT22;13899;51.174;4.456;2023-02-24T07:38:43;5.90;99.90
25918;DHT22;13899;51.174;4.456;2023-02-24T07:41:10;6.10;99.90
25918;DHT22;13899;51.174;4.456;2023-02-24T07:43:37;6.50;99.90
25918;DHT22;13899;51.174;4.456;2023-02-24T07:46:12;5.90;99.90
25918;DHT22;13899;51.174;4.456;2023-02-24T07:48:38;5.60;99.90
25918;DHT22;13899;51.174;4.456;2023-02-24T07:51:13;5.50;99.90
25918;DHT22;13899;51.174;4.456;2023-02-24T07:53:40;5.40;99.90
25918;DHT22;13899;51.174;4.456;2023-02-24T07:56:11;5.70;99.90
25918;DHT22;13899;51.174;4.456;2023-02-24T07:58:48;6.20;99.90
25918;DHT22;13899;51.174;4.456;2023-02-24T08:01:22;5.90;99.90
25918;DHT22;13899;51.174;4.456;2023-02-24T08:03:48;5.50;99.90
25918;DHT22;13899;51.174;4.456;2023-02-24T08:06:16;5.80;99.90
25918;DHT22;13899;51.174;4.456;2023-02-24T08:08:54;6.00;99.90
25918;DHT22;13899;51.174;4.456;2023-02-24T08:11:27;6.40;99.90
25918;DHT22;13899;51.174;4.456;2023-02-24T08:14:06;6.80;99.90
25918;DHT22;13899;51.174;4.456;2023-02-24T08:16:53;6.30;99.90
25918;DHT22;13899;51.174;4.456;2023-02-24T08:19:25;6.40;99.90
25918;DHT22;13899;51.174;4.456;2023-02-24T08:21:58;6.40;99.90
25918;DHT22;13899;51.174;4.456;2023-02-24T08:25:01;6.30;99.90
25918;DHT22;13899;51.174;4.456;2023-02-24T08:27:32;5.90;99.90
25918;DHT22;13899;51.174;4.456;2023-02-24T08:30:03;6.00;99.90
25918;DHT22;13899;51.174;4.456;2023-02-24T08:32:31;6.00;99.90
25918;DHT22;13899;51.174;4.456;2023-02-24T08:35:11;6.30;99.90
25918;DHT22;13899;51.174;4.456;2023-02-24T08:37:41;6.30;99.90
25918;DHT22;13899;51.174;4.456;2023-02-24T08:40:13;6.30;99.90
25918;DHT22;13899;51.174;4.456;2023-02-24T08:48:13;6.40;99.90
25918;DHT22;13899;51.174;4.456;2023-02-24T08:50:46;6.40;99.90
25918;DHT22;13899;51.174;4.456;2023-02-24T08:53:12;6.20;99.90
25918;DHT22;13899;51.174;4.456;2023-02-24T08:55:46;6.40;99.90
25918;DHT22;13899;51.174;4.456;2023-02-24T08:58:17;6.60;99.90
25918;DHT22;13899;51.174;4.456;2023-02-24T09:00:44;6.90;99.90
25918;DHT22;13899;51.174;4.456;2023-02-24T09:03:20;7.20;99.90
25918;DHT22;13899;51.174;4.456;2023-02-24T09:06:11;7.10;99.90
25918;DHT22;13899;51.174;4.456;2023-02-24T09:08:42;7.00;99.90
25918;DHT22;13899;51.174;4.456;2023-02-24T09:11:13;6.60;99.90
25918;DHT22;13899;51.174;4.456;2023-02-24T09:13:42;6.80;99.90
25918;DHT22;13899;51.174;4.456;2023-02-24T09:16:17;7.00;99.90
25918;DHT22;13899;51.174;4.456;2023-02-24T09:18:43;7.10;99.90
25918;DHT22;13899;51.174;4.456;2023-02-24T09:21:12;7.20;99.90
25918;DHT22;13899;51.174;4.456;2023-02-24T09:23:57;7.50;99.90
25918;DHT22;13899;51.174;4.456;2023-02-24T09:26:24;8.00;99.90
25918;DHT22;13899;51.174;4.456;2023-02-24T09:28:50;8.00;99.90
25918;DHT22;13899;51.174;4.456;2023-02-24T09:31:21;8.10;99.90
25918;DHT22;13899;51.174;4.456;2023-02-24T09:34:08;7.70;99.90
25918;DHT22;13899;51.174;4.456;2023-02-24T09:36:35;7.60;99.90
25918;DHT22;13899;51.174;4.456;2023-02-24T09:39:09;7.50;99.90
25918;DHT22;13899;51.174;4.456;2023-02-24T09:41:45;7.50;99.90
25918;DHT22;13899;51.174;4.456;2023-02-24T09:44:24;7.60;99.90
25918;DHT22;13899;51.174;4.456;2023-02-24T09:46:58;7.40;99.90
25918;DHT22;13899;51.174;4.456;2023-02-24T09:49:41;7.60;99.90
25918;DHT22;13899;51.174;4.456;2023-02-24T09:52:20;7.40;99.90
25918;DHT22;13899;51.174;4.456;2023-02-24T09:54:55;7.20;99.90
25918;DHT22;13899;51.174;4.456;2023-02-24T09:57:47;7.40;99.90
25918;DHT22;13899;51.174;4.456;2023-02-24T10:00:32;7.40;99.90
25918;DHT22;13899;51.174;4.456;2023-02-24T10:03:12;7.30;99.90
25918;DHT22;13899;51.174;4.456;2023-02-24T10:05:54;7.40;99.90
25918;DHT22;13899;51.174;4.456;2023-02-24T10:08:33;7.30;99.90
25918;DHT22;13899;51.174;4.456;2023-02-24T10:11:02;7.50;99.90
25918;DHT22;13899;51.174;4.456;2023-02-24T10:13:35;8.00;99.90
25918;DHT22;13899;51.174;4.456;2023-02-24T10:16:03;7.80;99.90
25918;DHT22;13899;51.174;4.456;2023-02-24T10:18:38;7.60;99.90
25918;DHT22;13899;51.174;4.456;2023-02-24T10:30:04;7.60;99.90
25918;DHT22;13899;51.174;4.456;2023-02-24T10:35:20;8.00;99.90
25918;DHT22;13899;51.174;4.456;2023-02-24T10:37:53;8.00;99.90
25918;DHT22;13899;51.174;4.456;2023-02-24T10:40:33;8.40;99.90
25918;DHT22;13899;51.174;4.456;2023-02-24T10:43:19;9.20;99.90
25918;DHT22;13899;51.174;4.456;2023-02-24T10:45:55;9.00;99.90
25918;DHT22;13899;51.174;4.456;2023-02-24T10:48:32;8.90;99.90
25918;DHT22;13899;51.174;4.456;2023-02-24T10:51:09;8.90;99.90
25918;DHT22;13899;51.174;4.456;2023-02-24T10:53:35;9.30;99.90
25918;DHT22;13899;51.174;4.456;2023-02-24T10:56:14;9.20;99.90
25918;DHT22;13899;51.174;4.456;2023-02-24T10:59:17;8.90;99.90
25918;DHT22;13899;51.174;4.456;2023-02-24T11:02:21;8.40;99.90
25918;DHT22;13899;51.174;4.456;2023-02-24T11:05:12;8.70;99.90
25918;DHT22;13899;51.174;4.456;2023-02-24T11:10:39;8.70;99.90
25918;DHT22;13899;51.174;4.456;2023-02-24T11:13:18;8.70;99.90
25918;DHT22;13899;51.174;4.456;2023-02-24T11:16:06;8.90;99.90
25918;DHT22;13899;51.174;4.456;2023-02-24T11:18:52;9.00;99.90
25918;DHT22;13899;51.174;4.456;2023-02-24T11:21:22;9.10;99.90
25918;DHT22;13899;51.174;4.456;2023-02-24T11:23:51;9.20;99.90
25918;DHT22;13899;51.174;4.456;2023-02-24T11:26:39;9.00;99.90
25918;DHT22;13899;51.174;4.456;2023-02-24T11:33:03;8.70;99.90
25918;DHT22;13899;51.174;4.456;2023-02-24T11:35:42;8.90;99.90
25918;DHT22;13899;51.174;4.456;2023-02-24T11:38:29;9.10;99.90
25918;DHT22;13899;51.174;4.456;2023-02-24T11:41:20;9.30;99.90
25918;DHT22;13899;51.174;4.456;2023-02-24T11:43:57;9.80;99.90
25918;DHT22;13899;51.174;4.456;2023-02-24T11:46:36;9.50;99.90
25918;DHT22;13899;51.174;4.456;2023-02-24T11:49:07;9.10;99.90
25918;DHT22;13899;51.174;4.456;2023-02-24T11:51:36;9.40;99.90
25918;DHT22;13899;51.174;4.456;2023-02-24T11:54:10;9.30;99.90
25918;DHT22;13899;51.174;4.456;2023-02-24T11:56:43;9.40;99.90
25918;DHT22;13899;51.174;4.456;2023-02-24T11:59:40;9.60;99.90
25918;DHT22;13899;51.174;4.456;2023-02-24T12:02:21;9.10;99.90
25918;DHT22;13899;51.174;4.456;2023-02-24T12:04:52;9.00;99.90
25918;DHT22;13899;51.174;4.456;2023-02-24T12:07:21;9.10;99.90
25918;DHT22;13899;51.174;4.456;2023-02-24T12:12:24;8.70;99.90
25918;DHT22;13899;51.174;4.456;2023-02-24T12:14:57;9.00;99.90
25918;DHT22;13899;51.174;4.456;2023-02-24T12:17:37;9.40;99.90
25918;DHT22;13899;51.174;4.456;2023-02-24T12:44:51;9.20;99.90
25918;DHT22;13899;51.174;4.456;2023-02-24T12:50:35;8.80;99.90
25918;DHT22;13899;51.174;4.456;2023-02-24T12:56:19;9.30;99.90
25918;DHT22;13899;51.174;4.456;2023-02-24T12:58:49;9.10;99.90
25918;DHT22;13899;51.174;4.456;2023-02-24T13:01:27;8.80;99.90
25918;DHT22;13899;51.174;4.456;2023-02-24T13:09:27;8.40;99.90
25918;DHT22;13899;51.174;4.456;2023-02-24T13:11:56;8.20;99.90
25918;DHT22;13899;51.174;4.456;2023-02-24T13:17:28;8.60;99.90
25918;DHT22;13899;51.174;4.456;2023-02-24T13:19:55;8.40;99.90
25918;DHT22;13899;51.174;4.456;2023-02-24T13:22:25;8.10;99.90
25918;DHT22;13899;51.174;4.456;2023-02-24T13:27:35;7.80;99.90
25918;DHT22;13899;51.174;4.456;2023-02-24T13:32:38;7.80;99.90
25918;DHT22;13899;51.174;4.456;2023-02-24T13:37:41;8.30;99.90
25918;DHT22;13899;51.174;4.456;2023-02-24T13:45:31;8.10;99.90
25918;DHT22;13899;51.174;4.456;2023-02-24T14:01:50;8.60;99.90
25918;DHT22;13899;51.174;4.456;2023-02-24T14:04:23;8.60;99.90
25918;DHT22;13899;51.174;4.456;2023-02-24T14:06:52;8.50;99.90
25918;DHT22;13899;51.174;4.456;2023-02-24T14:09:24;8.60;99.90
25918;DHT22;13899;51.174;4.456;2023-02-24T14:11:59;8.60;99.90
25918;DHT22;13899;51.174;4.456;2023-02-24T14:14:25;8.50;99.90
25918;DHT22;13899;51.174;4.456;2023-02-24T14:16:51;8.50;99.90
25918;DHT22;13899;51.174;4.456;2023-02-24T14:19:18;8.40;99.90
25918;DHT22;13899;51.174;4.456;2023-02-24T14:21:50;8.60;99.90
25918;DHT22;13899;51.174;4.456;2023-02-24T14:24:18;8.40;99.90
25918;DHT22;13899;51.174;4.456;2023-02-24T14:26:49;8.30;99.90
25918;DHT22;13899;51.174;4.456;2023-02-24T14:29:27;8.30;99.90
25918;DHT22;13899;51.174;4.456;2023-02-24T14:31:56;8.60;99.90
25918;DHT22;13899;51.174;4.456;2023-02-24T14:34:25;8.60;99.90
25918;DHT22;13899;51.174;4.456;2023-02-24T14:37:00;8.70;99.90
25918;DHT22;13899;51.174;4.456;2023-02-24T14:39:29;9.30;99.90
25918;DHT22;13899;51.174;4.456;2023-02-24T14:42:18;9.20;99.90
25918;DHT22;13899;51.174;4.456;2023-02-24T14:44:53;9.60;99.90
25918;DHT22;13899;51.174;4.456;2023-02-24T14:47:21;9.40;99.90
25918;DHT22;13899;51.174;4.456;2023-02-24T14:49:57;9.30;99.90
25918;DHT22;13899;51.174;4.456;2023-02-24T14:52:52;9.70;99.90
25918;DHT22;13899;51.174;4.456;2023-02-24T14:55:25;9.30;99.90
25918;DHT22;13899;51.174;4.456;2023-02-24T14:58:05;9.80;99.90
25918;DHT22;13899;51.174;4.456;2023-02-24T15:00:36;9.90;99.90
25918;DHT22;13899;51.174;4.456;2023-02-24T15:03:26;9.70;99.90
25918;DHT22;13899;51.174;4.456;2023-02-24T15:05:55;9.50;99.90
25918;DHT22;13899;51.174;4.456;2023-02-24T15:08:35;9.70;99.90
25918;DHT22;13899;51.174;4.456;2023-02-24T15:13:45;9.70;99.90
25918;DHT22;13899;51.174;4.456;2023-02-24T15:16:16;9.50;99.90
25918;DHT22;13899;51.174;4.456;2023-02-24T15:18:52;9.40;99.90
25918;DHT22;13899;51.174;4.456;2023-02-24T15:21:30;9.50;99.90
25918;DHT22;13899;51.174;4.456;2023-02-24T15:24:04;9.70;99.90
25918;DHT22;13899;51.174;4.456;2023-02-24T15:26:40;10.80;99.90
25918;DHT22;13899;51.174;4.456;2023-02-24T15:29:17;11.20;99.90
25918;DHT22;13899;51.174;4.456;2023-02-24T15:31:48;11.40;99.90
25918;DHT22;13899;51.174;4.456;2023-02-24T15:34:19;11.10;99.90
25918;DHT22;13899;51.174;4.456;2023-02-24T15:36:46;10.10;99.90
25918;DHT22;13899;51.174;4.456;2023-02-24T15:39:18;9.90;99.90
25918;DHT22;13899;51.174;4.456;2023-02-24T15:41:48;9.80;99.90
25918;DHT22;13899;51.174;4.456;2023-02-24T15:44:24;9.90;99.90
25918;DHT22;13899;51.174;4.456;2023-02-24T15:46:50;10.10;99.90
25918;DHT22;13899;51.174;4.456;2023-02-24T15:49:16;10.00;99.90
25918;DHT22;13899;51.174;4.456;2023-02-24T15:51:45;9.90;99.90
25918;DHT22;13899;51.174;4.456;2023-02-24T15:54:24;9.60;99.90
25918;DHT22;13899;51.174;4.456;2023-02-24T15:56:59;10.20;99.90
25918;DHT22;13899;51.174;4.456;2023-02-24T15:59:26;10.50;99.90
25918;DHT22;13899;51.174;4.456;2023-02-24T16:01:53;10.50;99.90
25918;DHT22;13899;51.174;4.456;2023-02-24T16:04:19;10.70;99.90
25918;DHT22;13899;51.174;4.456;2023-02-24T16:06:48;10.30;99.90
25918;DHT22;13899;51.174;4.456;2023-02-24T16:11:48;9.90;99.90
25918;DHT22;13899;51.174;4.456;2023-02-24T16:14:16;10.00;99.90
25918;DHT22;13899;51.174;4.456;2023-02-24T16:16:42;9.90;99.90
25918;DHT22;13899;51.174;4.456;2023-02-24T16:19:12;9.80;99.90
25918;DHT22;13899;51.174;4.456;2023-02-24T16:21:38;10.00;99.90
25918;DHT22;13899;51.174;4.456;2023-02-24T16:24:03;10.00;99.90
25918;DHT22;13899;51.174;4.456;2023-02-24T16:26:32;10.10;99.90
25918;DHT22;13899;51.174;4.456;2023-02-24T16:28:59;10.20;99.90
25918;DHT22;13899;51.174;4.456;2023-02-24T16:31:25;10.00;99.90
25918;DHT22;13899;51.174;4.456;2023-02-24T16:33:52;9.90;99.90
25918;DHT22;13899;51.174;4.456;2023-02-24T16:36:17;10.10;99.90
25918;DHT22;13899;51.174;4.456;2023-02-24T16:38:43;9.90;99.90
25918;DHT22;13899;51.174;4.456;2023-02-24T16:41:12;10.00;99.90
25918;DHT22;13899;51.174;4.456;2023-02-24T16:43:39;9.50;99.90
25918;DHT22;13899;51.174;4.456;2023-02-24T16:46:05;9.40;99.90
25918;DHT22;13899;51.174;4.456;2023-02-24T16:48:34;9.70;99.90
25918;DHT22;13899;51.174;4.456;2023-02-24T16:51:04;10.00;99.90
25918;DHT22;13899;51.174;4.456;2023-02-24T16:53:30;9.70;99.90
25918;DHT22;13899;51.174;4.456;2023-02-24T16:55:56;9.50;99.90
25918;DHT22;13899;51.174;4.456;2023-02-24T16:58:22;9.30;99.90
25918;DHT22;13899;51.174;4.456;2023-02-24T17:00:49;9.40;99.90
25918;DHT22;13899;51.174;4.456;2023-02-24T17:03:23;9.50;99.90
25918;DHT22;13899;51.174;4.456;2023-02-24T17:05:50;9.20;99.90
25918;DHT22;13899;51.174;4.456;2023-02-24T17:08:17;9.10;99.90
25918;DHT22;13899;51.174;4.456;2023-02-24T17:10:46;8.80;99.90
25918;DHT22;13899;51.174;4.456;2023-02-24T17:13:17;8.80;99.90
25918;DHT22;13899;51.174;4.456;2023-02-24T17:15:43;8.70;99.90
25918;DHT22;13899;51.174;4.456;2023-02-24T17:18:09;8.70;99.90
25918;DHT22;13899;51.174;4.456;2023-02-24T17:20:38;8.60;99.90
25918;DHT22;13899;51.174;4.456;2023-02-24T17:23:04;8.70;99.90
25918;DHT22;13899;51.174;4.456;2023-02-24T17:25:33;8.70;99.90
25918;DHT22;13899;51.174;4.456;2023-02-24T17:27:59;8.70;99.90
25918;DHT22;13899;51.174;4.456;2023-02-24T17:30:26;8.50;99.90
25918;DHT22;13899;51.174;4.456;2023-02-24T17:32:52;8.20;99.90
25918;DHT22;13899;51.174;4.456;2023-02-24T17:35:19;8.20;99.90
25918;DHT22;13899;51.174;4.456;2023-02-24T17:38:15;8.30;99.90
25918;DHT22;13899;51.174;4.456;2023-02-24T17:41:02;8.70;99.90
25918;DHT22;13899;51.174;4.456;2023-02-24T17:43:52;8.70;99.90
25918;DHT22;13899;51.174;4.456;2023-02-24T17:46:41;8.60;99.90
25918;DHT22;13899;51.174;4.456;2023-02-24T17:49:35;8.70;99.90
25918;DHT22;13899;51.174;4.456;2023-02-24T17:52:13;8.60;99.90
25918;DHT22;13899;51.174;4.456;2023-02-24T17:54:42;8.70;99.90
25918;DHT22;13899;51.174;4.456;2023-02-24T17:57:40;8.80;99.90
25918;DHT22;13899;51.174;4.456;2023-02-24T18:00:21;9.20;99.90
25918;DHT22;13899;51.174;4.456;2023-02-24T18:02:54;9.40;99.90
25918;DHT22;13899;51.174;4.456;2023-02-24T18:05:25;9.40;99.90
25918;DHT22;13899;51.174;4.456;2023-02-24T18:08:12;9.10;99.90
25918;DHT22;13899;51.174;4.456;2023-02-24T18:10:40;9.10;99.90
25918;DHT22;13899;51.174;4.456;2023-02-24T18:13:25;9.00;99.90
25918;DHT22;13899;51.174;4.456;2023-02-24T18:16:42;9.00;99.90